createdAt,value
2023-04-18T00:00:29.675Z,419.00
2023-04-18T00:01:24.759Z,424.00
2023-04-18T00:02:20.082Z,420.00
2023-04-18T00:03:15.443Z,415.00
2023-04-18T00:04:11.268Z,421.00
2023-04-18T00:05:06.153Z,419.00
2023-04-18T00:06:01.411Z,415.00
2023-04-18T00:06:57.568Z,419.00
2023-04-18T00:07:52.831Z,417.00
2023-04-18T00:08:48.564Z,422.00
2023-04-18T00:09:44.068Z,418.00
2023-04-18T00:10:39.036Z,418.00
2023-04-18T00:11:34.792Z,418.00
2023-04-18T00:12:30.022Z,416.00
2023-04-18T00:13:25.941Z,416.00
2023-04-18T00:14:21.135Z,418.00
2023-04-18T00:15:16.438Z,419.00
2023-04-18T00:16:12.277Z,420.00
2023-04-18T00:17:07.572Z,414.00
2023-04-18T00:18:02.562Z,412.00
2023-04-18T00:18:59.303Z,416.00
2023-04-18T00:19:54.405Z,413.00
2023-04-18T00:20:50.441Z,412.00
2023-04-18T00:21:45.512Z,409.00
2023-04-18T00:22:40.734Z,410.00
2023-04-18T00:23:36.477Z,417.00
2023-04-18T00:24:31.718Z,413.00
2023-04-18T00:25:27.615Z,414.00
2023-04-18T00:26:22.667Z,417.00
2023-04-18T00:27:17.958Z,413.00
2023-04-18T00:28:13.878Z,415.00
2023-04-18T00:29:09.055Z,416.00
2023-04-18T00:30:04.370Z,416.00
2023-04-18T00:31:00.402Z,416.00
2023-04-18T00:31:55.723Z,419.00
2023-04-18T00:32:51.575Z,425.00
2023-04-18T00:33:46.739Z,415.00
2023-04-18T00:34:42.148Z,418.00
2023-04-18T00:35:37.847Z,427.00
2023-04-18T00:36:33.060Z,425.00
2023-04-18T00:37:28.896Z,428.00
2023-04-18T00:38:24.061Z,424.00
2023-04-18T00:39:19.433Z,426.00
2023-04-18T00:40:15.139Z,424.00
2023-04-18T00:41:10.294Z,420.00
2023-04-18T00:42:05.462Z,421.00
2023-04-18T00:43:01.893Z,427.00
2023-04-18T00:43:57.107Z,421.00
2023-04-18T00:44:52.936Z,414.00
2023-04-18T00:45:48.109Z,418.00
2023-04-18T00:46:43.304Z,417.00
2023-04-18T00:47:39.052Z,414.00
2023-04-18T00:48:34.270Z,413.00
2023-04-18T00:49:30.071Z,411.00
2023-04-18T00:50:25.232Z,415.00
2023-04-18T00:51:20.443Z,420.00
2023-04-18T00:52:16.229Z,415.00
2023-04-18T00:53:11.432Z,415.00
2023-04-18T00:54:06.662Z,417.00
2023-04-18T00:55:03.185Z,411.00
2023-04-18T00:55:58.273Z,410.00
2023-04-18T00:56:54.014Z,413.00
2023-04-18T00:57:49.247Z,414.00
2023-04-18T00:58:44.528Z,418.00
2023-04-18T00:59:40.326Z,423.00
2023-04-18T01:00:35.542Z,414.00
2023-04-18T01:01:31.532Z,416.00
2023-04-18T01:02:26.667Z,424.00
2023-04-18T01:03:22.073Z,413.00
2023-04-18T01:04:17.436Z,419.00
2023-04-18T01:05:12.538Z,415.00
2023-04-18T01:06:09.078Z,415.00
2023-04-18T01:07:04.368Z,419.00
2023-04-18T01:08:00.184Z,411.00
2023-04-18T01:08:55.376Z,415.00
2023-04-18T01:09:50.613Z,415.00
2023-04-18T01:10:46.218Z,423.00
2023-04-18T01:11:41.424Z,416.00
2023-04-18T01:12:37.197Z,425.00
2023-04-18T01:13:32.389Z,413.00
2023-04-18T01:14:27.670Z,422.00
2023-04-18T01:15:23.452Z,424.00
2023-04-18T01:16:18.789Z,419.00
2023-04-18T01:17:13.852Z,413.00
2023-04-18T01:18:10.268Z,415.00
2023-04-18T01:19:05.646Z,414.00
2023-04-18T01:20:01.323Z,413.00
2023-04-18T01:20:56.507Z,411.00
2023-04-18T01:21:51.748Z,418.00
2023-04-18T01:22:46.898Z,418.00
2023-04-18T01:23:42.218Z,417.00
2023-04-18T01:24:37.459Z,416.00
2023-04-18T01:25:32.687Z,413.00
2023-04-18T01:26:28.323Z,414.00
2023-04-18T01:27:23.569Z,411.00
2023-04-18T01:28:18.808Z,419.00
2023-04-18T01:29:14.812Z,415.00
2023-04-18T01:30:09.870Z,412.00
2023-04-18T01:31:05.063Z,413.00
2023-04-18T01:32:00.237Z,410.00
2023-04-18T01:32:55.417Z,417.00
2023-04-18T01:33:50.391Z,415.00
2023-04-18T01:34:45.468Z,408.00
2023-04-18T01:35:40.545Z,403.00
2023-04-18T01:36:35.697Z,415.00
2023-04-18T01:37:30.759Z,413.00
2023-04-18T01:38:25.891Z,414.00
2023-04-18T01:39:20.993Z,408.00
2023-04-18T01:40:16.030Z,411.00
2023-04-18T01:41:11.088Z,407.00
2023-04-18T01:42:06.211Z,417.00
2023-04-18T01:43:01.221Z,423.00
2023-04-18T01:43:56.200Z,416.00
2023-04-18T01:44:51.341Z,409.00
2023-04-18T01:45:46.554Z,414.00
2023-04-18T01:46:41.794Z,410.00
2023-04-18T01:47:36.980Z,412.00
2023-04-18T01:48:32.008Z,410.00
2023-04-18T01:49:27.115Z,409.00
2023-04-18T01:50:22.063Z,412.00
2023-04-18T01:51:17.165Z,408.00
2023-04-18T01:52:12.145Z,409.00
2023-04-18T01:53:07.236Z,410.00
2023-04-18T01:54:02.331Z,419.00
2023-04-18T01:54:58.169Z,415.00
2023-04-18T01:55:53.245Z,417.00
2023-04-18T01:56:48.318Z,413.00
2023-04-18T01:57:43.368Z,408.00
2023-04-18T01:58:38.520Z,416.00
2023-04-18T01:59:33.883Z,407.00
2023-04-18T02:00:28.838Z,409.00
2023-04-18T02:01:23.852Z,412.00
2023-04-18T02:02:18.909Z,409.00
2023-04-18T02:03:14.034Z,416.00
2023-04-18T02:04:09.111Z,418.00
2023-04-18T02:05:04.120Z,414.00
2023-04-18T02:05:59.253Z,414.00
2023-04-18T02:06:54.184Z,412.00
2023-04-18T02:07:49.282Z,414.00
2023-04-18T02:08:44.249Z,414.00
2023-04-18T02:09:39.409Z,412.00
2023-04-18T02:10:34.648Z,417.00
2023-04-18T02:11:32.353Z,415.00
2023-04-18T02:12:27.317Z,412.00
2023-04-18T02:13:22.377Z,410.00
2023-04-18T02:14:17.458Z,419.00
2023-04-18T02:15:12.624Z,416.00
2023-04-18T02:16:07.640Z,411.00
2023-04-18T02:17:02.677Z,411.00
2023-04-18T02:17:57.791Z,410.00
2023-04-18T02:18:53.621Z,415.00
2023-04-18T02:19:48.820Z,415.00
2023-04-18T02:20:44.089Z,412.00
2023-04-18T02:21:39.253Z,414.00
2023-04-18T02:22:34.458Z,410.00
2023-04-18T02:23:29.671Z,416.00
2023-04-18T02:24:24.931Z,411.00
2023-04-18T02:25:20.163Z,413.00
2023-04-18T02:26:15.538Z,416.00
2023-04-18T02:27:12.937Z,416.00
2023-04-18T02:28:08.174Z,412.00
2023-04-18T02:29:03.413Z,411.00
2023-04-18T02:29:58.665Z,417.00
2023-04-18T02:30:53.902Z,413.00
2023-04-18T02:31:49.338Z,416.00
2023-04-18T02:32:44.453Z,411.00
2023-04-18T02:33:39.674Z,414.00
2023-04-18T02:34:34.789Z,408.00
2023-04-18T02:35:30.843Z,411.00
2023-04-18T02:36:25.936Z,411.00
2023-04-18T02:37:21.745Z,411.00
2023-04-18T02:38:16.973Z,413.00
2023-04-18T02:39:12.345Z,412.00
2023-04-18T02:40:08.112Z,408.00
2023-04-18T02:41:03.217Z,419.00
2023-04-18T02:41:58.490Z,416.00
2023-04-18T02:42:54.667Z,413.00
2023-04-18T02:43:49.961Z,418.00
2023-04-18T02:44:45.747Z,410.00
2023-04-18T02:45:41.032Z,414.00
2023-04-18T02:46:36.135Z,416.00
2023-04-18T02:47:37.545Z,416.00
2023-04-18T02:48:28.183Z,415.00
2023-04-18T02:49:22.894Z,409.00
2023-04-18T02:50:18.125Z,413.00
2023-04-18T02:51:13.479Z,410.00
2023-04-18T02:52:09.125Z,421.00
2023-04-18T02:53:04.443Z,412.00
2023-04-18T02:53:59.636Z,412.00
2023-04-18T02:54:56.022Z,411.00
2023-04-18T02:55:51.419Z,413.00
2023-04-18T02:56:47.215Z,411.00
2023-04-18T02:57:42.429Z,413.00
2023-04-18T02:58:37.687Z,413.00
2023-04-18T02:59:33.521Z,419.00
2023-04-18T03:00:28.824Z,413.00
2023-04-18T03:01:24.741Z,413.00
2023-04-18T03:02:19.950Z,412.00
2023-04-18T03:03:15.217Z,412.00
2023-04-18T03:04:11.047Z,413.00
2023-04-18T03:05:06.419Z,416.00
2023-04-18T03:06:01.765Z,421.00
2023-04-18T03:06:57.936Z,418.00
2023-04-18T03:07:53.093Z,423.00
2023-04-18T03:08:48.892Z,423.00
2023-04-18T03:09:44.107Z,416.00
2023-04-18T03:10:39.638Z,415.00
2023-04-18T03:11:35.221Z,421.00
2023-04-18T03:12:30.438Z,421.00
2023-04-18T03:13:26.275Z,418.00
2023-04-18T03:14:21.519Z,419.00
2023-04-18T03:15:17.101Z,417.00
2023-04-18T03:16:12.694Z,423.00
2023-04-18T03:17:07.836Z,420.00
2023-04-18T03:18:03.108Z,419.00
2023-04-18T03:18:59.332Z,418.00
2023-04-18T03:19:54.583Z,421.00
2023-04-18T03:20:50.415Z,422.00
2023-04-18T03:21:45.619Z,415.00
2023-04-18T03:22:40.909Z,422.00
2023-04-18T03:23:36.681Z,418.00
2023-04-18T03:24:32.001Z,425.00
2023-04-18T03:25:27.767Z,416.00
2023-04-18T03:26:23.074Z,423.00
2023-04-18T03:27:18.204Z,418.00
2023-04-18T03:28:14.025Z,423.00
2023-04-18T03:29:09.144Z,415.00
2023-04-18T03:30:04.375Z,416.00
2023-04-18T03:31:00.841Z,421.00
2023-04-18T03:31:56.061Z,422.00
2023-04-18T03:32:51.945Z,418.00
2023-04-18T03:33:47.064Z,414.00
2023-04-18T03:34:42.166Z,426.00
2023-04-18T03:35:37.444Z,417.00
2023-04-18T03:36:32.736Z,419.00
2023-04-18T03:37:28.600Z,430.00
2023-04-18T03:38:23.813Z,419.00
2023-04-18T03:39:19.048Z,425.00
2023-04-18T03:40:15.390Z,424.00
2023-04-18T03:41:10.662Z,419.00
2023-04-18T03:42:06.602Z,429.00
2023-04-18T03:43:01.760Z,424.00
2023-04-18T03:43:56.872Z,418.00
2023-04-18T03:44:52.697Z,429.00
2023-04-18T03:45:47.937Z,424.00
2023-04-18T03:46:44.010Z,425.00
2023-04-18T03:47:38.988Z,421.00
2023-04-18T03:48:34.267Z,419.00
2023-04-18T03:49:30.082Z,423.00
2023-04-18T03:50:25.391Z,421.00
2023-04-18T03:51:20.594Z,421.00
2023-04-18T03:52:15.908Z,418.00
2023-04-18T03:53:10.846Z,420.00
2023-04-18T03:54:05.908Z,419.00
2023-04-18T03:55:00.873Z,430.00
2023-04-18T03:55:59.917Z,422.00
2023-04-18T03:56:55.038Z,421.00
2023-04-18T03:57:50.454Z,427.00
2023-04-18T03:58:45.702Z,428.00
2023-04-18T03:59:40.829Z,426.00
2023-04-18T04:00:35.785Z,430.00
2023-04-18T04:01:30.881Z,427.00
2023-04-18T04:02:25.953Z,422.00
2023-04-18T04:03:20.936Z,427.00
2023-04-18T04:04:16.330Z,430.00
2023-04-18T04:05:11.134Z,427.00
2023-04-18T04:06:06.122Z,428.00
2023-04-18T04:07:01.245Z,421.00
2023-04-18T04:07:56.194Z,423.00
2023-04-18T04:08:51.315Z,421.00
2023-04-18T04:09:46.407Z,421.00
2023-04-18T04:10:41.464Z,425.00
2023-04-18T04:11:36.449Z,424.00
2023-04-18T04:12:31.660Z,422.00
2023-04-18T04:13:26.509Z,416.00
2023-04-18T04:14:21.603Z,419.00
2023-04-18T04:15:16.591Z,424.00
2023-04-18T04:16:11.658Z,419.00
2023-04-18T04:17:06.679Z,424.00
2023-04-18T04:18:01.792Z,423.00
2023-04-18T04:18:56.677Z,418.00
2023-04-18T04:19:51.754Z,425.00
2023-04-18T04:20:46.761Z,417.00
2023-04-18T04:21:41.800Z,423.00
2023-04-18T04:22:36.809Z,423.00
2023-04-18T04:23:31.882Z,425.00
2023-04-18T04:24:27.153Z,423.00
2023-04-18T04:25:22.329Z,425.00
2023-04-18T04:26:17.606Z,429.00
2023-04-18T04:27:13.053Z,431.00
2023-04-18T04:28:08.233Z,429.00
2023-04-18T04:29:03.528Z,430.00
2023-04-18T04:29:58.867Z,428.00
2023-04-18T04:30:54.073Z,422.00
2023-04-18T04:31:49.590Z,424.00
2023-04-18T04:32:44.906Z,428.00
2023-04-18T04:33:40.079Z,425.00
2023-04-18T04:34:35.463Z,420.00
2023-04-18T04:35:30.839Z,419.00
2023-04-18T04:36:26.401Z,425.00
2023-04-18T04:37:21.505Z,420.00
2023-04-18T04:38:16.942Z,426.00
2023-04-18T04:39:12.222Z,422.00
2023-04-18T04:40:07.649Z,426.00
2023-04-18T04:41:03.048Z,434.00
2023-04-18T04:41:58.363Z,421.00
2023-04-18T04:42:53.734Z,424.00
2023-04-18T04:43:49.201Z,420.00
2023-04-18T04:44:44.469Z,424.00
2023-04-18T04:45:39.926Z,430.00
2023-04-18T04:46:35.179Z,425.00
2023-04-18T04:47:30.658Z,422.00
2023-04-18T04:48:25.903Z,426.00
2023-04-18T04:49:21.201Z,424.00
2023-04-18T04:50:16.488Z,419.00
2023-04-18T04:52:35.904Z,426.00
2023-04-18T04:53:31.199Z,425.00
2023-04-18T04:54:26.465Z,419.00
2023-04-18T04:55:21.853Z,422.00
2023-04-18T04:56:17.260Z,421.00
2023-04-18T04:57:12.757Z,419.00
2023-04-18T04:58:08.107Z,422.00
2023-04-18T04:59:03.489Z,421.00
2023-04-18T04:59:58.892Z,417.00
2023-04-18T05:00:54.224Z,420.00
2023-04-18T05:01:49.660Z,415.00
2023-04-18T05:02:45.098Z,422.00
2023-04-18T05:03:40.602Z,418.00
2023-04-18T05:04:36.097Z,416.00
2023-04-18T05:05:31.003Z,423.00
2023-04-18T05:06:26.342Z,421.00
2023-04-18T05:07:21.730Z,422.00
2023-04-18T05:08:17.038Z,421.00
2023-04-18T05:09:12.490Z,430.00
2023-04-18T05:10:07.728Z,421.00
2023-04-18T05:11:03.216Z,420.00
2023-04-18T05:11:58.781Z,421.00
2023-04-18T05:12:54.078Z,422.00
2023-04-18T05:13:49.413Z,423.00
2023-04-18T05:14:44.746Z,421.00
2023-04-18T05:15:40.076Z,422.00
2023-04-18T05:16:35.540Z,421.00
2023-04-18T05:17:30.890Z,424.00
2023-04-18T05:18:26.205Z,428.00
2023-04-18T05:19:21.657Z,420.00
2023-04-18T05:20:16.986Z,423.00
2023-04-18T05:21:12.336Z,417.00
2023-04-18T05:22:07.826Z,422.00
2023-04-18T05:23:03.271Z,430.00
2023-04-18T05:23:58.618Z,427.00
2023-04-18T05:24:53.945Z,428.00
2023-04-18T05:25:49.312Z,422.00
2023-04-18T05:26:44.725Z,424.00
2023-04-18T05:27:40.295Z,424.00
2023-04-18T05:28:35.483Z,424.00
2023-04-18T05:29:30.927Z,423.00
2023-04-18T05:30:26.237Z,419.00
2023-04-18T05:31:21.797Z,426.00
2023-04-18T05:32:17.099Z,426.00
2023-04-18T05:33:12.836Z,419.00
2023-04-18T05:34:07.930Z,424.00
2023-04-18T05:35:03.623Z,424.00
2023-04-18T05:35:58.875Z,425.00
2023-04-18T05:36:54.270Z,428.00
2023-04-18T05:37:49.621Z,426.00
2023-04-18T05:38:45.025Z,434.00
2023-04-18T05:39:40.560Z,433.00
2023-04-18T05:40:35.812Z,426.00
2023-04-18T05:41:31.225Z,427.00
2023-04-18T05:42:26.762Z,422.00
2023-04-18T05:43:22.243Z,425.00
2023-04-18T05:44:18.184Z,431.00
2023-04-18T05:45:13.120Z,434.00
2023-04-18T05:46:08.661Z,432.00
2023-04-18T05:47:04.044Z,423.00
2023-04-18T05:47:59.574Z,427.00
2023-04-18T05:48:55.040Z,431.00
2023-04-18T05:49:50.477Z,418.00
2023-04-18T05:50:45.831Z,418.00
2023-04-18T05:51:41.491Z,426.00
2023-04-18T05:52:36.875Z,423.00
2023-04-18T05:53:32.428Z,425.00
2023-04-18T05:54:28.089Z,419.00
2023-04-18T05:55:23.381Z,422.00
2023-04-18T05:56:18.794Z,425.00
2023-04-18T05:57:14.442Z,427.00
2023-04-18T05:58:09.708Z,424.00
2023-04-18T05:59:05.090Z,424.00
2023-04-18T06:00:00.525Z,425.00
2023-04-18T06:00:55.958Z,426.00
2023-04-18T06:01:51.311Z,422.00
2023-04-18T06:02:46.871Z,420.00
2023-04-18T06:03:42.329Z,423.00
2023-04-18T06:04:38.014Z,424.00
2023-04-18T06:05:33.038Z,421.00
2023-04-18T06:06:28.397Z,422.00
2023-04-18T06:07:23.924Z,425.00
2023-04-18T06:08:19.334Z,420.00
2023-04-18T06:09:14.560Z,420.00
2023-04-18T06:10:10.009Z,419.00
2023-04-18T06:11:05.388Z,430.00
2023-04-18T06:12:01.049Z,425.00
2023-04-18T06:12:56.440Z,423.00
2023-04-18T06:13:52.001Z,437.00
2023-04-18T06:14:47.692Z,437.00
2023-04-18T06:15:43.005Z,431.00
2023-04-18T06:16:38.430Z,429.00
2023-04-18T06:17:33.865Z,434.00
2023-04-18T06:18:29.235Z,435.00
2023-04-18T06:19:24.882Z,427.00
2023-04-18T06:20:20.304Z,422.00
2023-04-18T06:21:15.757Z,434.00
2023-04-18T06:22:11.135Z,432.00
2023-04-18T06:23:06.659Z,434.00
2023-04-18T06:24:02.216Z,425.00
2023-04-18T06:24:57.617Z,423.00
2023-04-18T06:25:53.140Z,428.00
2023-04-18T06:26:48.423Z,430.00
2023-04-18T06:27:43.789Z,422.00
2023-04-18T06:28:39.316Z,425.00
2023-04-18T06:29:36.057Z,423.00
2023-04-18T06:30:30.143Z,427.00
2023-04-18T06:31:25.823Z,430.00
2023-04-18T06:32:21.140Z,424.00
2023-04-18T06:33:16.501Z,425.00
2023-04-18T06:34:12.149Z,428.00
2023-04-18T06:35:07.324Z,424.00
2023-04-18T06:36:02.703Z,424.00
2023-04-18T06:36:58.077Z,415.00
2023-04-18T06:37:53.866Z,420.00
2023-04-18T06:38:49.090Z,422.00
2023-04-18T06:39:44.489Z,425.00
2023-04-18T06:40:40.000Z,425.00
2023-04-18T06:41:35.369Z,423.00
2023-04-18T06:42:30.639Z,423.00
2023-04-18T06:43:26.194Z,420.00
2023-04-18T06:44:21.730Z,425.00
2023-04-18T06:45:17.238Z,464.00
2023-04-18T06:46:12.452Z,599.00
2023-04-18T06:47:08.101Z,568.00
2023-04-18T06:48:03.484Z,458.00
2023-04-18T06:48:58.739Z,470.00
2023-04-18T06:49:54.139Z,444.00
2023-04-18T06:50:49.845Z,477.00
2023-04-18T06:51:45.286Z,458.00
2023-04-18T06:52:40.780Z,460.00
2023-04-18T06:53:36.140Z,444.00
2023-04-18T06:54:31.951Z,458.00
2023-04-18T06:55:27.196Z,453.00
2023-04-18T06:56:22.709Z,431.00
2023-04-18T06:57:18.159Z,438.00
2023-04-18T06:58:13.602Z,427.00
2023-04-18T06:59:09.065Z,423.00
2023-04-18T07:00:04.706Z,424.00
2023-04-18T07:00:59.995Z,429.00
2023-04-18T07:01:55.434Z,423.00
2023-04-18T07:02:51.072Z,422.00
2023-04-18T07:03:46.372Z,427.00
2023-04-18T07:04:41.780Z,426.00
2023-04-18T07:05:37.195Z,428.00
2023-04-18T07:06:32.628Z,423.00
2023-04-18T07:07:27.999Z,424.00
2023-04-18T07:08:23.328Z,424.00
2023-04-18T07:09:18.760Z,427.00
2023-04-18T07:10:14.156Z,421.00
2023-04-18T07:11:09.875Z,421.00
2023-04-18T07:12:04.980Z,421.00
2023-04-18T07:13:00.535Z,421.00
2023-04-18T07:13:55.917Z,421.00
2023-04-18T07:14:51.419Z,420.00
2023-04-18T07:15:46.936Z,422.00
2023-04-18T07:16:42.533Z,417.00
2023-04-18T07:17:37.848Z,427.00
2023-04-18T07:18:37.840Z,420.00
2023-04-18T07:19:29.613Z,421.00
2023-04-18T07:20:24.062Z,421.00
2023-04-18T07:21:19.455Z,424.00
2023-04-18T07:22:14.883Z,422.00
2023-04-18T07:23:10.409Z,421.00
2023-04-18T07:24:05.929Z,422.00
2023-04-18T07:25:01.209Z,434.00
2023-04-18T07:25:56.708Z,425.00
2023-04-18T07:26:53.798Z,427.00
2023-04-18T07:27:47.464Z,429.00
2023-04-18T07:28:42.978Z,426.00
2023-04-18T07:29:38.410Z,426.00
2023-04-18T07:30:33.801Z,425.00
2023-04-18T07:31:30.400Z,421.00
2023-04-18T07:32:24.797Z,421.00
2023-04-18T07:33:20.138Z,419.00
2023-04-18T07:34:16.022Z,416.00
2023-04-18T07:35:11.096Z,420.00
2023-04-18T07:36:06.620Z,423.00
2023-04-18T07:37:01.992Z,425.00
2023-04-18T07:37:57.519Z,426.00
2023-04-18T07:38:53.083Z,425.00
2023-04-18T07:39:48.465Z,424.00
2023-04-18T07:40:43.845Z,424.00
2023-04-18T07:41:39.521Z,422.00
2023-04-18T07:42:34.928Z,424.00
2023-04-18T07:43:30.337Z,428.00
2023-04-18T07:44:25.699Z,427.00
2023-04-18T07:45:21.090Z,433.00
2023-04-18T07:46:16.690Z,433.00
2023-04-18T07:47:12.007Z,430.00
2023-04-18T07:48:07.481Z,428.00
2023-04-18T07:49:03.122Z,428.00
2023-04-18T07:49:58.391Z,427.00
2023-04-18T07:50:53.836Z,426.00
2023-04-18T07:51:49.212Z,425.00
2023-04-18T07:52:44.736Z,427.00
2023-04-18T07:53:40.028Z,417.00
2023-04-18T07:54:35.427Z,434.00
2023-04-18T07:55:30.821Z,427.00
2023-04-18T07:56:26.356Z,425.00
2023-04-18T07:57:21.900Z,424.00
2023-04-18T07:58:17.212Z,426.00
2023-04-18T07:59:12.958Z,423.00
2023-04-18T08:00:07.950Z,420.00
2023-04-18T08:01:03.321Z,422.00
2023-04-18T08:01:58.890Z,427.00
2023-04-18T08:02:54.485Z,432.00
2023-04-18T08:03:49.982Z,429.00
2023-04-18T08:04:45.357Z,429.00
2023-04-18T08:05:40.953Z,430.00
2023-04-18T08:06:36.674Z,428.00
2023-04-18T08:07:31.569Z,427.00
2023-04-18T08:08:27.013Z,426.00
2023-04-18T08:09:22.484Z,420.00
2023-04-18T08:10:17.871Z,423.00
2023-04-18T08:11:13.608Z,425.00
2023-04-18T08:12:08.854Z,425.00
2023-04-18T08:13:04.242Z,419.00
2023-04-18T08:13:59.618Z,424.00
2023-04-18T08:14:55.330Z,423.00
2023-04-18T08:15:50.741Z,426.00
2023-04-18T08:16:46.394Z,424.00
2023-04-18T08:17:41.777Z,427.00
2023-04-18T08:18:37.116Z,420.00
2023-04-18T08:19:32.465Z,417.00
2023-04-18T08:20:27.992Z,418.00
2023-04-18T08:21:23.376Z,417.00
2023-04-18T08:22:18.815Z,421.00
2023-04-18T08:23:14.156Z,419.00
2023-04-18T08:24:09.787Z,419.00
2023-04-18T08:25:05.825Z,419.00
2023-04-18T08:26:00.502Z,422.00
2023-04-18T08:26:55.889Z,422.00
2023-04-18T08:27:51.424Z,425.00
2023-04-18T08:28:46.952Z,415.00
2023-04-18T08:29:42.391Z,417.00
2023-04-18T08:30:37.821Z,417.00
2023-04-18T08:31:33.301Z,423.00
2023-04-18T08:32:28.764Z,420.00
2023-04-18T08:33:24.503Z,419.00
2023-04-18T08:34:19.885Z,426.00
2023-04-18T08:35:15.275Z,424.00
2023-04-18T08:36:10.763Z,421.00
2023-04-18T08:37:06.165Z,420.00
2023-04-18T08:38:01.741Z,416.00
2023-04-18T08:38:57.122Z,416.00
2023-04-18T08:39:52.519Z,416.00
2023-04-18T08:40:47.948Z,421.00
2023-04-18T08:41:43.329Z,421.00
2023-04-18T08:42:38.835Z,422.00
2023-04-18T08:43:34.125Z,420.00
2023-04-18T08:44:29.526Z,421.00
2023-04-18T08:45:25.066Z,419.00
2023-04-18T08:46:20.381Z,422.00
2023-04-18T08:47:15.766Z,425.00
2023-04-18T08:48:11.225Z,422.00
2023-04-18T08:49:06.801Z,421.00
2023-04-18T08:50:02.158Z,426.00
2023-04-18T08:50:57.547Z,422.00
2023-04-18T08:51:52.952Z,423.00
2023-04-18T08:52:48.469Z,423.00
2023-04-18T08:53:43.739Z,420.00
2023-04-18T08:54:39.164Z,425.00
2023-04-18T08:55:34.722Z,422.00
2023-04-18T08:56:29.974Z,419.00
2023-04-18T08:57:25.387Z,421.00
2023-04-18T08:58:20.791Z,422.00
2023-04-18T08:59:16.385Z,422.00
2023-04-18T09:00:11.822Z,422.00
2023-04-18T09:01:07.480Z,420.00
2023-04-18T09:02:02.772Z,420.00
2023-04-18T09:02:58.273Z,422.00
2023-04-18T09:03:53.616Z,425.00
2023-04-18T09:04:49.405Z,421.00
2023-04-18T09:05:44.642Z,429.00
2023-04-18T09:06:40.055Z,430.00
2023-04-18T09:07:35.447Z,422.00
2023-04-18T09:08:31.023Z,422.00
2023-04-18T09:09:26.569Z,424.00
2023-04-18T09:10:22.335Z,426.00
2023-04-18T09:11:17.598Z,424.00
2023-04-18T09:12:13.083Z,430.00
2023-04-18T09:13:08.544Z,421.00
2023-04-18T09:14:04.119Z,421.00
2023-04-18T09:14:59.447Z,421.00
2023-04-18T09:15:55.045Z,424.00
2023-04-18T09:16:50.248Z,428.00
2023-04-18T09:17:45.796Z,425.00
2023-04-18T09:18:41.340Z,421.00
2023-04-18T09:19:36.749Z,427.00
2023-04-18T09:20:32.183Z,422.00
2023-04-18T09:21:27.629Z,421.00
2023-04-18T09:22:23.066Z,419.00
2023-04-18T09:23:18.742Z,422.00
2023-04-18T09:24:14.235Z,441.00
2023-04-18T09:25:09.600Z,426.00
2023-04-18T09:26:05.018Z,420.00
2023-04-18T09:27:00.455Z,421.00
2023-04-18T09:27:55.852Z,422.00
2023-04-18T09:28:53.689Z,418.00
2023-04-18T09:29:47.443Z,424.00
2023-04-18T09:30:42.821Z,425.00
2023-04-18T09:31:38.205Z,421.00
2023-04-18T09:32:33.624Z,428.00
2023-04-18T09:33:28.709Z,421.00
2023-04-18T09:34:23.711Z,423.00
2023-04-18T09:35:18.687Z,429.00
2023-04-18T09:36:13.978Z,425.00
2023-04-18T09:37:13.827Z,424.00
2023-04-18T09:38:08.911Z,424.00
2023-04-18T09:39:04.304Z,423.00
2023-04-18T09:40:00.005Z,428.00
2023-04-18T09:40:55.381Z,430.00
2023-04-18T09:41:50.734Z,427.00
2023-04-18T09:42:47.090Z,427.00
2023-04-18T09:43:42.645Z,433.00
2023-04-18T09:44:38.421Z,423.00
2023-04-18T09:45:33.835Z,427.00
2023-04-18T09:46:29.254Z,427.00
2023-04-18T09:47:24.939Z,425.00
2023-04-18T09:48:20.290Z,423.00
2023-04-18T09:49:16.315Z,433.00
2023-04-18T09:50:11.393Z,433.00
2023-04-18T09:51:07.111Z,428.00
2023-04-18T09:52:02.961Z,429.00
2023-04-18T09:52:58.327Z,418.00
2023-04-18T09:53:53.675Z,419.00
2023-04-18T09:54:50.087Z,429.00
2023-04-18T09:55:45.480Z,420.00
2023-04-18T09:56:41.466Z,426.00
2023-04-18T09:57:36.862Z,427.00
2023-04-18T09:58:32.369Z,424.00
2023-04-18T09:59:28.189Z,424.00
2023-04-18T10:00:24.656Z,422.00
2023-04-18T10:01:19.524Z,427.00
2023-04-18T10:02:14.949Z,416.00
2023-04-18T10:03:10.314Z,426.00
2023-04-18T10:04:05.935Z,419.00
2023-04-18T10:05:01.416Z,425.00
2023-04-18T10:05:57.874Z,423.00
2023-04-18T10:06:53.385Z,413.00
2023-04-18T10:07:48.645Z,415.00
2023-04-18T10:08:44.538Z,415.00
2023-04-18T10:09:39.913Z,412.00
2023-04-18T10:10:35.281Z,414.00
2023-04-18T10:11:31.267Z,416.00
2023-04-18T10:12:26.533Z,413.00
2023-04-18T10:13:22.469Z,413.00
2023-04-18T10:14:18.013Z,411.00
2023-04-18T10:15:13.209Z,409.00
2023-04-18T10:16:09.099Z,412.00
2023-04-18T10:17:04.694Z,409.00
2023-04-18T10:18:05.126Z,407.00
2023-04-18T10:18:57.385Z,412.00
2023-04-18T10:19:51.931Z,408.00
2023-04-18T10:20:47.845Z,422.00
2023-04-18T10:21:43.388Z,414.00
2023-04-18T10:22:38.745Z,409.00
2023-04-18T10:23:34.429Z,409.00
2023-04-18T10:24:29.968Z,422.00
2023-04-18T10:25:25.728Z,418.00
2023-04-18T10:26:21.185Z,413.00
2023-04-18T10:27:16.409Z,418.00
2023-04-18T10:28:12.080Z,410.00
2023-04-18T10:29:07.543Z,411.00
2023-04-18T10:30:02.900Z,412.00
2023-04-18T10:30:59.246Z,416.00
2023-04-18T10:31:54.876Z,415.00
2023-04-18T10:32:50.901Z,415.00
2023-04-18T10:33:52.820Z,417.00
2023-04-18T10:34:43.288Z,413.00
2023-04-18T10:35:39.204Z,415.00
2023-04-18T10:36:33.647Z,414.00
2023-04-18T10:37:29.046Z,419.00
2023-04-18T10:38:24.551Z,417.00
2023-04-18T10:39:19.841Z,416.00
2023-04-18T10:40:15.552Z,410.00
2023-04-18T10:41:11.588Z,411.00
2023-04-18T10:42:07.012Z,415.00
2023-04-18T10:43:02.806Z,412.00
2023-04-18T10:43:58.284Z,412.00
2023-04-18T10:44:53.808Z,414.00
2023-04-18T10:45:49.558Z,411.00
2023-04-18T10:46:45.040Z,411.00
2023-04-18T10:47:41.421Z,409.00
2023-04-18T10:48:38.512Z,415.00
2023-04-18T10:49:32.976Z,411.00
2023-04-18T10:50:27.832Z,415.00
2023-04-18T10:51:23.299Z,411.00
2023-04-18T10:52:19.034Z,409.00
2023-04-18T10:53:14.918Z,419.00
2023-04-18T10:54:10.421Z,420.00
2023-04-18T10:55:05.774Z,413.00
2023-04-18T10:56:01.332Z,415.00
2023-04-18T10:56:57.331Z,415.00
2023-04-18T10:57:52.942Z,436.00
2023-04-18T10:58:47.796Z,422.00
2023-04-18T10:59:42.929Z,420.00
2023-04-18T11:00:41.649Z,419.00
2023-04-18T11:01:37.168Z,423.00
2023-04-18T11:02:32.696Z,429.00
2023-04-18T11:03:28.402Z,419.00
2023-04-18T11:04:23.828Z,420.00
2023-04-18T11:05:19.243Z,425.00
2023-04-18T11:06:15.921Z,428.00
2023-04-18T11:07:11.567Z,425.00
2023-04-18T11:08:07.139Z,417.00
2023-04-18T11:09:02.599Z,419.00
2023-04-18T11:09:58.039Z,419.00
2023-04-18T11:10:53.955Z,421.00
2023-04-18T11:11:49.458Z,417.00
2023-04-18T11:12:45.127Z,419.00
2023-04-18T11:13:40.535Z,411.00
2023-04-18T11:14:36.039Z,419.00
2023-04-18T11:15:32.046Z,411.00
2023-04-18T11:16:27.552Z,413.00
2023-04-18T11:17:22.989Z,414.00
2023-04-18T11:18:19.331Z,415.00
2023-04-18T11:19:14.788Z,411.00
2023-04-18T11:20:10.617Z,414.00
2023-04-18T11:21:06.061Z,424.00
2023-04-18T11:22:01.489Z,420.00
2023-04-18T11:22:57.310Z,422.00
2023-04-18T11:23:52.787Z,411.00
2023-04-18T11:24:48.762Z,413.00
2023-04-18T11:25:44.047Z,417.00
2023-04-18T11:26:39.668Z,414.00
2023-04-18T11:27:35.419Z,416.00
2023-04-18T11:28:30.765Z,421.00
2023-04-18T11:29:26.254Z,419.00
2023-04-18T11:30:22.486Z,414.00
2023-04-18T11:31:17.900Z,413.00
2023-04-18T11:32:13.847Z,411.00
2023-04-18T11:33:09.357Z,415.00